sensor_id;sensor_type;location;lat;lon;timestamp;pressure;altitude;pressure_sealevel;temperature;humidity
60015;BME280;45867;52.480;6.056;2024-01-15T00:01:00;99076.19;;;-0.12;100.00
60015;BME280;45867;52.480;6.056;2024-01-15T00:03:27;99069.16;;;-0.11;100.00
60015;BME280;45867;52.480;6.056;2024-01-15T00:05:54;99070.41;;;-0.14;100.00
60015;BME280;45867;52.480;6.056;2024-01-15T00:08:20;99030.59;;;-0.31;100.00
60015;BME280;45867;52.480;6.056;2024-01-15T00:10:47;99063.34;;;-0.18;100.00
60015;BME280;45867;52.480;6.056;2024-01-15T00:13:13;99038.66;;;-0.33;100.00
60015;BME280;45867;52.480;6.056;2024-01-15T00:15:40;99051.72;;;-0.28;100.00
60015;BME280;45867;52.480;6.056;2024-01-15T00:18:07;99047.34;;;-0.27;100.00
60015;BME280;45867;52.480;6.056;2024-01-15T00:20:34;99031.50;;;-0.42;100.00
60015;BME280;45867;52.480;6.056;2024-01-15T00:23:01;99039.84;;;-0.40;100.00
60015;BME280;45867;52.480;6.056;2024-01-15T00:25:27;99031.41;;;-0.48;100.00
60015;BME280;45867;52.480;6.056;2024-01-15T00:27:54;99051.91;;;-0.34;100.00
60015;BME280;45867;52.480;6.056;2024-01-15T00:30:21;99050.38;;;-0.30;100.00
60015;BME280;45867;52.480;6.056;2024-01-15T00:32:47;99042.97;;;-0.38;100.00
60015;BME280;45867;52.480;6.056;2024-01-15T00:35:14;99033.91;;;-0.36;100.00
60015;BME280;45867;52.480;6.056;2024-01-15T00:37:40;99031.25;;;-0.24;100.00
60015;BME280;45867;52.480;6.056;2024-01-15T00:40:07;99035.88;;;-0.26;100.00
60015;BME280;45867;52.480;6.056;2024-01-15T00:42:34;99014.63;;;-0.40;100.00
60015;BME280;45867;52.480;6.056;2024-01-15T00:45:00;99026.03;;;-0.24;100.00
60015;BME280;45867;52.480;6.056;2024-01-15T00:47:27;99024.50;;;-0.20;100.00
60015;BME280;45867;52.480;6.056;2024-01-15T00:49:53;99018.22;;;-0.24;100.00
60015;BME280;45867;52.480;6.056;2024-01-15T00:52:20;99028.75;;;-0.14;100.00
60015;BME280;45867;52.480;6.056;2024-01-15T00:54:46;99010.50;;;-0.19;100.00
60015;BME280;45867;52.480;6.056;2024-01-15T00:57:13;99024.97;;;-0.06;100.00
60015;BME280;45867;52.480;6.056;2024-01-15T00:59:39;99043.75;;;-0.04;100.00
60015;BME280;45867;52.480;6.056;2024-01-15T01:02:06;99040.78;;;0.09;100.00
60015;BME280;45867;52.480;6.056;2024-01-15T01:04:32;99041.84;;;0.08;100.00
60015;BME280;45867;52.480;6.056;2024-01-15T01:06:59;99042.34;;;0.10;100.00
60015;BME280;45867;52.480;6.056;2024-01-15T01:09:26;99049.16;;;0.11;100.00
60015;BME280;45867;52.480;6.056;2024-01-15T01:11:55;99065.47;;;0.24;100.00
60015;BME280;45867;52.480;6.056;2024-01-15T01:14:22;99062.78;;;0.18;100.00
60015;BME280;45867;52.480;6.056;2024-01-15T01:16:48;99090.31;;;0.31;100.00
60015;BME280;45867;52.480;6.056;2024-01-15T01:19:15;99071.63;;;0.17;100.00
60015;BME280;45867;52.480;6.056;2024-01-15T01:21:42;99112.72;;;0.32;100.00
60015;BME280;45867;52.480;6.056;2024-01-15T01:24:08;99104.22;;;0.20;100.00
60015;BME280;45867;52.480;6.056;2024-01-15T01:26:35;99108.97;;;0.23;100.00
60015;BME280;45867;52.480;6.056;2024-01-15T01:29:04;99113.19;;;0.29;100.00
60015;BME280;45867;52.480;6.056;2024-01-15T01:31:34;99136.50;;;0.36;100.00
60015;BME280;45867;52.480;6.056;2024-01-15T01:34:00;99142.50;;;0.36;100.00
60015;BME280;45867;52.480;6.056;2024-01-15T01:36:31;99143.56;;;0.40;100.00
60015;BME280;45867;52.480;6.056;2024-01-15T01:38:58;99144.16;;;0.26;100.00
60015;BME280;45867;52.480;6.056;2024-01-15T01:41:24;99134.78;;;0.25;100.00
60015;BME280;45867;52.480;6.056;2024-01-15T01:43:51;99163.03;;;0.33;100.00
60015;BME280;45867;52.480;6.056;2024-01-15T01:46:18;99131.47;;;0.12;100.00
60015;BME280;45867;52.480;6.056;2024-01-15T01:48:47;99164.91;;;0.37;100.00
60015;BME280;45867;52.480;6.056;2024-01-15T01:51:14;99163.47;;;0.30;100.00
60015;BME280;45867;52.480;6.056;2024-01-15T01:53:41;99163.75;;;0.28;100.00
60015;BME280;45867;52.480;6.056;2024-01-15T01:56:09;99157.41;;;0.41;100.00
60015;BME280;45867;52.480;6.056;2024-01-15T01:58:35;99139.44;;;0.22;100.00
60015;BME280;45867;52.480;6.056;2024-01-15T02:01:03;99150.72;;;0.28;100.00
60015;BME280;45867;52.480;6.056;2024-01-15T02:03:30;99148.78;;;0.40;100.00
60015;BME280;45867;52.480;6.056;2024-01-15T02:05:59;99140.84;;;0.30;100.00
60015;BME280;45867;52.480;6.056;2024-01-15T02:08:26;99142.78;;;0.40;100.00
60015;BME280;45867;52.480;6.056;2024-01-15T02:10:53;99128.53;;;0.26;100.00
60015;BME280;45867;52.480;6.056;2024-01-15T02:13:20;99135.16;;;0.33;100.00
60015;BME280;45867;52.480;6.056;2024-01-15T02:15:46;99133.06;;;0.35;100.00
60015;BME280;45867;52.480;6.056;2024-01-15T02:18:13;99142.00;;;0.39;100.00
60015;BME280;45867;52.480;6.056;2024-01-15T02:20:40;99149.59;;;0.41;100.00
60015;BME280;45867;52.480;6.056;2024-01-15T02:23:10;99143.09;;;0.43;100.00
60015;BME280;45867;52.480;6.056;2024-01-15T02:25:44;99107.41;;;0.05;100.00
60015;BME280;45867;52.480;6.056;2024-01-15T02:28:15;99150.47;;;0.30;100.00
60015;BME280;45867;52.480;6.056;2024-01-15T02:30:43;99117.97;;;0.15;100.00
60015;BME280;45867;52.480;6.056;2024-01-15T02:33:11;99141.53;;;0.42;100.00
60015;BME280;45867;52.480;6.056;2024-01-15T02:35:38;99116.38;;;0.31;100.00
60015;BME280;45867;52.480;6.056;2024-01-15T02:38:05;99122.31;;;0.49;100.00
60015;BME280;45867;52.480;6.056;2024-01-15T02:40:32;99106.00;;;0.36;100.00
60015;BME280;45867;52.480;6.056;2024-01-15T02:42:59;99086.38;;;0.29;100.00
60015;BME280;45867;52.480;6.056;2024-01-15T02:45:28;99104.06;;;0.49;100.00
60015;BME280;45867;52.480;6.056;2024-01-15T02:47:55;99108.78;;;0.52;100.00
60015;BME280;45867;52.480;6.056;2024-01-15T02:50:22;99117.50;;;0.57;100.00
60015;BME280;45867;52.480;6.056;2024-01-15T02:52:49;99112.09;;;0.64;100.00
60015;BME280;45867;52.480;6.056;2024-01-15T02:55:15;99110.94;;;0.55;100.00
60015;BME280;45867;52.480;6.056;2024-01-15T02:57:42;99097.59;;;0.51;100.00
60015;BME280;45867;52.480;6.056;2024-01-15T03:00:09;99103.91;;;0.55;100.00
60015;BME280;45867;52.480;6.056;2024-01-15T03:02:37;99133.16;;;0.62;100.00
60015;BME280;45867;52.480;6.056;2024-01-15T03:05:04;99125.06;;;0.59;100.00
60015;BME280;45867;52.480;6.056;2024-01-15T03:07:30;99123.22;;;0.37;100.00
60015;BME280;45867;52.480;6.056;2024-01-15T03:09:57;99135.66;;;0.52;100.00
60015;BME280;45867;52.480;6.056;2024-01-15T03:12:23;99130.94;;;0.49;100.00
60015;BME280;45867;52.480;6.056;2024-01-15T03:14:50;99125.41;;;0.46;100.00
60015;BME280;45867;52.480;6.056;2024-01-15T03:17:17;99114.59;;;0.37;100.00
60015;BME280;45867;52.480;6.056;2024-01-15T03:19:43;99118.56;;;0.39;100.00
60015;BME280;45867;52.480;6.056;2024-01-15T03:22:10;99132.72;;;0.49;100.00
60015;BME280;45867;52.480;6.056;2024-01-15T03:24:37;99148.69;;;0.52;100.00
60015;BME280;45867;52.480;6.056;2024-01-15T03:27:09;99118.06;;;0.42;100.00
60015;BME280;45867;52.480;6.056;2024-01-15T03:29:39;99113.78;;;0.53;100.00
60015;BME280;45867;52.480;6.056;2024-01-15T03:32:06;99115.03;;;0.51;100.00
60015;BME280;45867;52.480;6.056;2024-01-15T03:34:32;99117.78;;;0.61;100.00
60015;BME280;45867;52.480;6.056;2024-01-15T03:36:59;99098.69;;;0.55;100.00
60015;BME280;45867;52.480;6.056;2024-01-15T03:39:26;99090.63;;;0.57;100.00
60015;BME280;45867;52.480;6.056;2024-01-15T03:41:52;99108.34;;;0.77;100.00
60015;BME280;45867;52.480;6.056;2024-01-15T03:44:19;99122.22;;;0.82;100.00
60015;BME280;45867;52.480;6.056;2024-01-15T03:46:45;99091.00;;;0.65;100.00
60015;BME280;45867;52.480;6.056;2024-01-15T03:49:12;99092.31;;;0.68;100.00
60015;BME280;45867;52.480;6.056;2024-01-15T03:51:38;99094.13;;;0.68;100.00
60015;BME280;45867;52.480;6.056;2024-01-15T03:54:05;99077.34;;;0.58;100.00
60015;BME280;45867;52.480;6.056;2024-01-15T03:56:32;99088.44;;;0.71;100.00
60015;BME280;45867;52.480;6.056;2024-01-15T03:58:58;99085.16;;;0.80;100.00
60015;BME280;45867;52.480;6.056;2024-01-15T04:01:27;99082.75;;;0.74;100.00
60015;BME280;45867;52.480;6.056;2024-01-15T04:03:54;99078.44;;;0.62;100.00
60015;BME280;45867;52.480;6.056;2024-01-15T04:06:21;99087.69;;;0.75;100.00
60015;BME280;45867;52.480;6.056;2024-01-15T04:08:47;99094.97;;;0.73;100.00
60015;BME280;45867;52.480;6.056;2024-01-15T04:11:14;99052.00;;;0.54;100.00
60015;BME280;45867;52.480;6.056;2024-01-15T04:13:40;99070.81;;;0.56;100.00
60015;BME280;45867;52.480;6.056;2024-01-15T04:16:08;99056.50;;;0.58;100.00
60015;BME280;45867;52.480;6.056;2024-01-15T04:18:34;99055.88;;;0.51;100.00
60015;BME280;45867;52.480;6.056;2024-01-15T04:21:04;99039.25;;;0.30;100.00
60015;BME280;45867;52.480;6.056;2024-01-15T04:23:32;99051.47;;;0.30;100.00
60015;BME280;45867;52.480;6.056;2024-01-15T04:25:58;99055.25;;;0.39;100.00
60015;BME280;45867;52.480;6.056;2024-01-15T04:28:25;99040.81;;;0.31;100.00
60015;BME280;45867;52.480;6.056;2024-01-15T04:30:52;99035.38;;;0.33;100.00
60015;BME280;45867;52.480;6.056;2024-01-15T04:33:18;99033.97;;;0.25;100.00
60015;BME280;45867;52.480;6.056;2024-01-15T04:35:45;99010.09;;;0.11;100.00
60015;BME280;45867;52.480;6.056;2024-01-15T04:38:11;99029.00;;;0.24;100.00
60015;BME280;45867;52.480;6.056;2024-01-15T04:40:38;99004.81;;;0.28;100.00
60015;BME280;45867;52.480;6.056;2024-01-15T04:43:04;98986.66;;;0.11;100.00
60015;BME280;45867;52.480;6.056;2024-01-15T04:45:31;98971.19;;;0.05;100.00
60015;BME280;45867;52.480;6.056;2024-01-15T04:47:57;98974.41;;;0.12;100.00
60015;BME280;45867;52.480;6.056;2024-01-15T04:50:24;98941.16;;;-0.03;100.00
60015;BME280;45867;52.480;6.056;2024-01-15T04:52:50;98973.50;;;0.01;100.00
60015;BME280;45867;52.480;6.056;2024-01-15T04:55:17;98936.69;;;-0.08;100.00
60015;BME280;45867;52.480;6.056;2024-01-15T04:57:43;98946.34;;;-0.03;100.00
60015;BME280;45867;52.480;6.056;2024-01-15T05:00:11;98937.69;;;-0.09;100.00
60015;BME280;45867;52.480;6.056;2024-01-15T05:02:38;98914.19;;;-0.14;100.00
60015;BME280;45867;52.480;6.056;2024-01-15T05:05:04;98932.25;;;-0.07;100.00
60015;BME280;45867;52.480;6.056;2024-01-15T05:07:31;98910.16;;;-0.05;100.00
60015;BME280;45867;52.480;6.056;2024-01-15T05:09:57;98888.00;;;-0.07;100.00
60015;BME280;45867;52.480;6.056;2024-01-15T05:12:24;98897.56;;;0.09;100.00
60015;BME280;45867;52.480;6.056;2024-01-15T05:14:50;98871.41;;;-0.01;100.00
60015;BME280;45867;52.480;6.056;2024-01-15T05:17:17;98889.03;;;0.14;100.00
60015;BME280;45867;52.480;6.056;2024-01-15T05:19:43;98883.84;;;0.19;100.00
60015;BME280;45867;52.480;6.056;2024-01-15T05:22:10;98876.50;;;0.16;100.00
60015;BME280;45867;52.480;6.056;2024-01-15T05:24:37;98856.88;;;0.03;100.00
60015;BME280;45867;52.480;6.056;2024-01-15T05:27:04;98843.88;;;-0.19;100.00
60015;BME280;45867;52.480;6.056;2024-01-15T05:29:30;98857.25;;;-0.10;100.00
60015;BME280;45867;52.480;6.056;2024-01-15T05:31:57;98865.13;;;-0.05;100.00
60015;BME280;45867;52.480;6.056;2024-01-15T05:34:27;98845.44;;;-0.18;100.00
60015;BME280;45867;52.480;6.056;2024-01-15T05:37:00;98840.03;;;-0.11;100.00
60015;BME280;45867;52.480;6.056;2024-01-15T05:39:29;98823.00;;;-0.24;100.00
60015;BME280;45867;52.480;6.056;2024-01-15T05:41:55;98825.78;;;-0.31;100.00
60015;BME280;45867;52.480;6.056;2024-01-15T05:44:24;98822.66;;;-0.33;100.00
60015;BME280;45867;52.480;6.056;2024-01-15T05:46:51;98823.53;;;-0.22;100.00
60015;BME280;45867;52.480;6.056;2024-01-15T05:49:17;98815.31;;;-0.36;100.00
60015;BME280;45867;52.480;6.056;2024-01-15T05:51:44;98802.34;;;-0.31;100.00
60015;BME280;45867;52.480;6.056;2024-01-15T05:54:13;98803.56;;;-0.38;100.00
60015;BME280;45867;52.480;6.056;2024-01-15T05:56:40;98787.88;;;-0.49;100.00
60015;BME280;45867;52.480;6.056;2024-01-15T05:59:06;98793.91;;;-0.43;100.00
60015;BME280;45867;52.480;6.056;2024-01-15T06:01:33;98797.66;;;-0.34;100.00
60015;BME280;45867;52.480;6.056;2024-01-15T06:03:59;98794.38;;;-0.24;100.00
60015;BME280;45867;52.480;6.056;2024-01-15T06:06:26;98775.81;;;-0.33;100.00
60015;BME280;45867;52.480;6.056;2024-01-15T06:08:53;98758.88;;;-0.35;100.00
60015;BME280;45867;52.480;6.056;2024-01-15T06:11:19;98766.06;;;-0.42;100.00
60015;BME280;45867;52.480;6.056;2024-01-15T06:13:46;98759.09;;;-0.37;100.00
60015;BME280;45867;52.480;6.056;2024-01-15T06:16:15;98745.47;;;-0.44;100.00
60015;BME280;45867;52.480;6.056;2024-01-15T06:18:42;98744.81;;;-0.34;100.00
60015;BME280;45867;52.480;6.056;2024-01-15T06:21:08;98751.69;;;-0.23;100.00
60015;BME280;45867;52.480;6.056;2024-01-15T06:23:35;98760.81;;;-0.20;100.00
60015;BME280;45867;52.480;6.056;2024-01-15T06:26:02;98746.75;;;-0.25;100.00
60015;BME280;45867;52.480;6.056;2024-01-15T06:28:31;98738.56;;;-0.33;100.00
60015;BME280;45867;52.480;6.056;2024-01-15T06:30:58;98733.06;;;-0.37;100.00
60015;BME280;45867;52.480;6.056;2024-01-15T06:33:25;98759.84;;;-0.14;100.00
60015;BME280;45867;52.480;6.056;2024-01-15T06:35:51;98754.09;;;-0.16;100.00
60015;BME280;45867;52.480;6.056;2024-01-15T06:38:18;98754.09;;;-0.16;100.00
60015;BME280;45867;52.480;6.056;2024-01-15T06:40:44;98761.88;;;-0.21;100.00
60015;BME280;45867;52.480;6.056;2024-01-15T06:43:12;98735.91;;;-0.38;100.00
60015;BME280;45867;52.480;6.056;2024-01-15T06:45:39;98745.31;;;-0.37;100.00
60015;BME280;45867;52.480;6.056;2024-01-15T06:48:09;98732.25;;;-0.42;100.00
60015;BME280;45867;52.480;6.056;2024-01-15T06:50:35;98744.25;;;-0.36;100.00
60015;BME280;45867;52.480;6.056;2024-01-15T06:53:02;98759.22;;;-0.27;100.00
60015;BME280;45867;52.480;6.056;2024-01-15T06:55:28;98747.22;;;-0.28;100.00
60015;BME280;45867;52.480;6.056;2024-01-15T06:57:55;98743.88;;;-0.50;100.00
60015;BME280;45867;52.480;6.056;2024-01-15T07:00:25;98735.06;;;-0.44;100.00
60015;BME280;45867;52.480;6.056;2024-01-15T07:02:54;98719.50;;;-0.66;100.00
60015;BME280;45867;52.480;6.056;2024-01-15T07:05:21;98716.13;;;-0.67;100.00
60015;BME280;45867;52.480;6.056;2024-01-15T07:07:48;98732.88;;;-0.57;100.00
60015;BME280;45867;52.480;6.056;2024-01-15T07:10:14;98733.34;;;-0.60;100.00
60015;BME280;45867;52.480;6.056;2024-01-15T07:12:44;98756.50;;;-0.37;100.00
60015;BME280;45867;52.480;6.056;2024-01-15T07:15:14;98736.13;;;-0.45;100.00
60015;BME280;45867;52.480;6.056;2024-01-15T07:17:44;98743.91;;;-0.45;100.00
60015;BME280;45867;52.480;6.056;2024-01-15T07:20:11;98735.06;;;-0.44;100.00
60015;BME280;45867;52.480;6.056;2024-01-15T07:22:38;98717.22;;;-0.62;100.00
60015;BME280;45867;52.480;6.056;2024-01-15T07:25:05;98754.69;;;-0.36;100.00
60015;BME280;45867;52.480;6.056;2024-01-15T07:27:33;98744.47;;;-0.43;100.00
60015;BME280;45867;52.480;6.056;2024-01-15T07:30:03;98749.91;;;-0.45;100.00
60015;BME280;45867;52.480;6.056;2024-01-15T07:32:31;98780.53;;;-0.30;100.00
60015;BME280;45867;52.480;6.056;2024-01-15T07:35:00;98743.38;;;-0.47;100.00
60015;BME280;45867;52.480;6.056;2024-01-15T07:37:33;98766.41;;;-0.34;100.00
60015;BME280;45867;52.480;6.056;2024-01-15T07:39:59;98784.53;;;-0.17;100.00
60015;BME280;45867;52.480;6.056;2024-01-15T07:42:26;98783.31;;;-0.09;100.00
60015;BME280;45867;52.480;6.056;2024-01-15T07:44:56;98772.31;;;-0.16;100.00
60015;BME280;45867;52.480;6.056;2024-01-15T07:47:22;98770.78;;;-0.12;100.00
60015;BME280;45867;52.480;6.056;2024-01-15T07:49:49;98783.13;;;-0.03;100.00
60015;BME280;45867;52.480;6.056;2024-01-15T07:52:25;98782.75;;;-0.16;100.00
60015;BME280;45867;52.480;6.056;2024-01-15T07:54:52;98767.00;;;-0.27;100.00
60015;BME280;45867;52.480;6.056;2024-01-15T07:57:19;98792.44;;;-0.07;100.00
60015;BME280;45867;52.480;6.056;2024-01-15T07:59:50;98797.16;;;-0.04;100.00
60015;BME280;45867;52.480;6.056;2024-01-15T08:02:17;98799.47;;;-0.07;100.00
60015;BME280;45867;52.480;6.056;2024-01-15T08:04:44;98775.59;;;-0.26;100.00
60015;BME280;45867;52.480;6.056;2024-01-15T08:07:11;98770.63;;;-0.28;100.00
60015;BME280;45867;52.480;6.056;2024-01-15T08:09:39;98791.81;;;-0.19;100.00
60015;BME280;45867;52.480;6.056;2024-01-15T08:12:06;98793.09;;;-0.21;100.00
60015;BME280;45867;52.480;6.056;2024-01-15T08:14:33;98793.38;;;-0.18;100.00
60015;BME280;45867;52.480;6.056;2024-01-15T08:16:59;98771.13;;;-0.31;100.00
60015;BME280;45867;52.480;6.056;2024-01-15T08:19:31;98786.31;;;-0.23;100.00
60015;BME280;45867;52.480;6.056;2024-01-15T08:21:58;98755.94;;;-0.39;100.00
60015;BME280;45867;52.480;6.056;2024-01-15T08:24:25;98777.97;;;-0.25;100.00
60015;BME280;45867;52.480;6.056;2024-01-15T08:26:51;98780.81;;;-0.26;100.00
60015;BME280;45867;52.480;6.056;2024-01-15T08:29:18;98782.97;;;-0.18;100.00
60015;BME280;45867;52.480;6.056;2024-01-15T08:31:49;98791.94;;;-0.04;100.00
60015;BME280;45867;52.480;6.056;2024-01-15T08:34:17;98754.06;;;-0.21;100.00
60015;BME280;45867;52.480;6.056;2024-01-15T08:36:44;98772.91;;;-0.09;100.00
60015;BME280;45867;52.480;6.056;2024-01-15T08:39:13;98761.41;;;-0.13;100.00
60015;BME280;45867;52.480;6.056;2024-01-15T08:41:40;98765.31;;;-0.16;100.00
60015;BME280;45867;52.480;6.056;2024-01-15T08:44:06;98763.75;;;-0.12;100.00
60015;BME280;45867;52.480;6.056;2024-01-15T08:46:33;98786.06;;;0.06;100.00
60015;BME280;45867;52.480;6.056;2024-01-15T08:48:59;98755.47;;;-0.09;100.00
60015;BME280;45867;52.480;6.056;2024-01-15T08:51:33;98765.72;;;0.03;100.00
60015;BME280;45867;52.480;6.056;2024-01-15T08:54:06;98761.03;;;0.05;100.00
60015;BME280;45867;52.480;6.056;2024-01-15T08:56:39;98780.41;;;0.14;100.00
60015;BME280;45867;52.480;6.056;2024-01-15T08:59:06;98767.84;;;0.06;100.00
60015;BME280;45867;52.480;6.056;2024-01-15T09:01:33;98801.03;;;0.21;100.00
60015;BME280;45867;52.480;6.056;2024-01-15T09:04:00;98790.28;;;0.12;100.00
60015;BME280;45867;52.480;6.056;2024-01-15T09:06:26;98797.03;;;0.08;100.00
60015;BME280;45867;52.480;6.056;2024-01-15T09:08:55;98818.81;;;0.29;100.00
60015;BME280;45867;52.480;6.056;2024-01-15T09:11:22;98819.84;;;0.28;100.00
60015;BME280;45867;52.480;6.056;2024-01-15T09:13:48;98811.53;;;0.31;100.00
60015;BME280;45867;52.480;6.056;2024-01-15T09:16:16;98814.09;;;0.58;100.00
60015;BME280;45867;52.480;6.056;2024-01-15T09:18:43;98839.25;;;0.75;100.00
60015;BME280;45867;52.480;6.056;2024-01-15T09:21:10;98854.38;;;0.78;100.00
60015;BME280;45867;52.480;6.056;2024-01-15T09:23:37;98816.16;;;0.56;100.00
60015;BME280;45867;52.480;6.056;2024-01-15T09:26:04;98814.75;;;0.43;100.00
60015;BME280;45867;52.480;6.056;2024-01-15T09:28:31;98871.00;;;0.66;100.00
60015;BME280;45867;52.480;6.056;2024-01-15T09:30:57;98863.72;;;0.69;100.00
60015;BME280;45867;52.480;6.056;2024-01-15T09:33:24;98846.47;;;0.68;100.00
60015;BME280;45867;52.480;6.056;2024-01-15T09:35:51;98877.63;;;0.84;100.00
60015;BME280;45867;52.480;6.056;2024-01-15T09:38:17;98876.69;;;0.96;100.00
60015;BME280;45867;52.480;6.056;2024-01-15T09:40:45;98880.00;;;0.86;100.00
60015;BME280;45867;52.480;6.056;2024-01-15T09:43:12;98865.63;;;0.83;100.00
60015;BME280;45867;52.480;6.056;2024-01-15T09:45:39;98898.41;;;1.11;100.00
60015;BME280;45867;52.480;6.056;2024-01-15T09:48:06;98886.13;;;1.02;100.00
60015;BME280;45867;52.480;6.056;2024-01-15T09:50:34;98920.25;;;1.00;100.00
60015;BME280;45867;52.480;6.056;2024-01-15T09:53:01;98909.03;;;0.68;100.00
60015;BME280;45867;52.480;6.056;2024-01-15T09:55:31;98935.00;;;0.52;100.00
60015;BME280;45867;52.480;6.056;2024-01-15T09:58:00;98949.97;;;0.40;100.00
60015;BME280;45867;52.480;6.056;2024-01-15T10:00:27;98948.28;;;0.29;100.00
60015;BME280;45867;52.480;6.056;2024-01-15T10:02:54;98934.91;;;0.20;100.00
60015;BME280;45867;52.480;6.056;2024-01-15T10:05:21;98933.53;;;0.12;100.00
60015;BME280;45867;52.480;6.056;2024-01-15T10:07:48;98957.16;;;0.28;100.00
60015;BME280;45867;52.480;6.056;2024-01-15T10:10:15;98930.84;;;0.07;100.00
60015;BME280;45867;52.480;6.056;2024-01-15T10:12:42;98912.97;;;0.16;100.00
60015;BME280;45867;52.480;6.056;2024-01-15T10:15:10;98943.78;;;0.46;100.00
60015;BME280;45867;52.480;6.056;2024-01-15T10:17:37;98941.09;;;0.68;100.00
60015;BME280;45867;52.480;6.056;2024-01-15T10:20:11;98923.22;;;0.77;100.00
60015;BME280;45867;52.480;6.056;2024-01-15T10:22:42;98891.25;;;0.59;100.00
60015;BME280;45867;52.480;6.056;2024-01-15T10:25:12;98903.34;;;0.71;100.00
60015;BME280;45867;52.480;6.056;2024-01-15T10:27:40;98909.78;;;0.90;100.00
60015;BME280;45867;52.480;6.056;2024-01-15T10:30:08;98893.56;;;0.88;100.00
60015;BME280;45867;52.480;6.056;2024-01-15T10:32:36;98888.78;;;1.12;100.00
60015;BME280;45867;52.480;6.056;2024-01-15T10:35:03;98874.47;;;0.77;100.00
60015;BME280;45867;52.480;6.056;2024-01-15T10:37:33;98883.19;;;0.61;100.00
60015;BME280;45867;52.480;6.056;2024-01-15T10:40:02;98917.75;;;0.78;100.00
60015;BME280;45867;52.480;6.056;2024-01-15T10:42:28;98898.63;;;0.40;100.00
60015;BME280;45867;52.480;6.056;2024-01-15T10:44:57;98932.16;;;0.59;100.00
60015;BME280;45867;52.480;6.056;2024-01-15T10:47:24;98917.09;;;0.61;100.00
60015;BME280;45867;52.480;6.056;2024-01-15T10:49:57;98908.53;;;0.65;100.00
60015;BME280;45867;52.480;6.056;2024-01-15T10:52:24;98916.78;;;0.89;100.00
60015;BME280;45867;52.480;6.056;2024-01-15T10:54:54;98868.50;;;0.82;100.00
60015;BME280;45867;52.480;6.056;2024-01-15T10:57:23;98904.94;;;1.09;100.00
60015;BME280;45867;52.480;6.056;2024-01-15T10:59:52;98916.28;;;0.87;100.00
60015;BME280;45867;52.480;6.056;2024-01-15T11:02:21;98887.41;;;0.67;100.00
60015;BME280;45867;52.480;6.056;2024-01-15T11:04:49;98930.53;;;0.80;100.00
60015;BME280;45867;52.480;6.056;2024-01-15T11:07:16;98922.72;;;0.80;100.00
60015;BME280;45867;52.480;6.056;2024-01-15T11:09:45;98903.44;;;0.81;100.00
60015;BME280;45867;52.480;6.056;2024-01-15T11:12:13;98928.25;;;0.88;100.00
60015;BME280;45867;52.480;6.056;2024-01-15T11:14:41;98949.44;;;0.97;100.00
60015;BME280;45867;52.480;6.056;2024-01-15T11:17:08;98929.31;;;0.93;100.00
60015;BME280;45867;52.480;6.056;2024-01-15T11:19:46;98940.75;;;0.86;100.00
60015;BME280;45867;52.480;6.056;2024-01-15T11:25:14;98961.56;;;0.81;100.00
60015;BME280;45867;52.480;6.056;2024-01-15T11:27:43;98963.28;;;0.65;100.00
60015;BME280;45867;52.480;6.056;2024-01-15T11:30:11;98984.97;;;0.71;100.00
60015;BME280;45867;52.480;6.056;2024-01-15T11:32:38;98947.69;;;0.49;100.00
60015;BME280;45867;52.480;6.056;2024-01-15T11:35:05;98966.31;;;0.57;100.00
60015;BME280;45867;52.480;6.056;2024-01-15T11:40:37;98964.63;;;1.05;100.00
60015;BME280;45867;52.480;6.056;2024-01-15T11:43:06;98967.88;;;1.18;100.00
60015;BME280;45867;52.480;6.056;2024-01-15T11:45:33;98950.34;;;1.13;100.00
60015;BME280;45867;52.480;6.056;2024-01-15T11:48:13;98951.50;;;0.90;100.00
60015;BME280;45867;52.480;6.056;2024-01-15T11:50:42;98952.09;;;1.02;100.00
60015;BME280;45867;52.480;6.056;2024-01-15T11:53:39;98953.47;;;1.10;100.00
60015;BME280;45867;52.480;6.056;2024-01-15T11:56:15;98955.00;;;1.06;100.00
60015;BME280;45867;52.480;6.056;2024-01-15T11:58:45;98950.19;;;0.93;100.00
60015;BME280;45867;52.480;6.056;2024-01-15T12:01:11;98921.72;;;0.86;100.00
60015;BME280;45867;52.480;6.056;2024-01-15T12:03:39;98950.19;;;0.93;100.00
60015;BME280;45867;52.480;6.056;2024-01-15T12:06:06;98952.97;;;0.81;100.00
60015;BME280;45867;52.480;6.056;2024-01-15T12:08:33;98930.41;;;0.64;100.00
60015;BME280;45867;52.480;6.056;2024-01-15T12:11:00;98936.81;;;0.84;100.00
60015;BME280;45867;52.480;6.056;2024-01-15T12:13:28;98963.06;;;1.04;100.00
60015;BME280;45867;52.480;6.056;2024-01-15T12:15:56;98942.34;;;0.87;100.00
60015;BME280;45867;52.480;6.056;2024-01-15T12:18:23;98958.41;;;1.06;100.00
60015;BME280;45867;52.480;6.056;2024-01-15T12:20:50;98965.47;;;1.11;100.00
60015;BME280;45867;52.480;6.056;2024-01-15T12:23:16;98956.63;;;1.12;100.00
60015;BME280;45867;52.480;6.056;2024-01-15T12:25:44;98971.47;;;1.11;100.00
60015;BME280;45867;52.480;6.056;2024-01-15T12:28:11;98937.13;;;0.87;100.00
60015;BME280;45867;52.480;6.056;2024-01-15T12:30:38;98941.06;;;0.90;100.00
60015;BME280;45867;52.480;6.056;2024-01-15T12:33:07;98952.56;;;0.94;100.00
60015;BME280;45867;52.480;6.056;2024-01-15T12:35:35;98997.81;;;1.10;100.00
60015;BME280;45867;52.480;6.056;2024-01-15T12:38:02;98958.28;;;0.91;100.00
60015;BME280;45867;52.480;6.056;2024-01-15T12:40:31;98974.25;;;1.00;100.00
60015;BME280;45867;52.480;6.056;2024-01-15T12:43:01;99001.41;;;1.36;100.00
60015;BME280;45867;52.480;6.056;2024-01-15T12:45:30;99006.69;;;1.46;100.00
60015;BME280;45867;52.480;6.056;2024-01-15T12:47:59;99006.78;;;1.57;100.00
60015;BME280;45867;52.480;6.056;2024-01-15T12:50:26;99028.53;;;1.72;100.00
60015;BME280;45867;52.480;6.056;2024-01-15T12:52:52;99042.44;;;1.78;100.00
60015;BME280;45867;52.480;6.056;2024-01-15T12:55:22;99034.25;;;1.64;100.00
60015;BME280;45867;52.480;6.056;2024-01-15T12:57:49;99021.06;;;2.44;100.00
60015;BME280;45867;52.480;6.056;2024-01-15T13:00:16;99022.66;;;2.55;100.00
60015;BME280;45867;52.480;6.056;2024-01-15T13:02:43;99059.91;;;2.25;100.00
60015;BME280;45867;52.480;6.056;2024-01-15T13:05:10;99070.06;;;1.74;100.00